Time,TemperatureF,DewpointF,PressureIn,WindDirection,WindDirectionDegrees,WindSpeedMPH,WindSpeedGustMPH,Humidity,HourlyPrecipIn,Conditions,Clouds,dailyrainin,SoftwareType,DateUTC
2013-04-09 00:03:00,52.0,49.0,30.39,SW,226,4.0,12.0,88,0.00,,,-99.99,,2013-04-09 04:03:00,
2013-04-09 00:13:00,52.0,49.0,30.39,SW,226,4.0,12.0,88,0.00,,,-99.99,,2013-04-09 04:13:00,
2013-04-09 00:23:00,52.0,48.0,30.39,West,280,6.0,11.0,87,0.00,,,-99.99,,2013-04-09 04:23:00,
2013-04-09 00:32:00,52.0,48.0,30.39,West,280,6.0,11.0,87,0.00,,,-99.99,,2013-04-09 04:32:00,
2013-04-09 00:43:00,52.0,48.0,30.39,West,280,6.0,11.0,87,0.00,,,-99.99,,2013-04-09 04:43:00,
2013-04-09 01:03:00,52.0,49.0,30.39,WNW,302,4.0,7.0,88,0.00,,,-99.99,,2013-04-09 05:03:00,
2013-04-09 01:12:00,51.0,48.0,30.40,NW,307,7.0,9.0,90,0.00,,,-99.99,,2013-04-09 05:12:00,
2013-04-09 01:22:00,51.0,48.0,30.40,NW,307,7.0,9.0,90,0.00,,,-99.99,,2013-04-09 05:22:00,
2013-04-09 01:32:00,50.0,48.0,30.40,WNW,297,6.0,9.0,92,0.00,,,-99.99,,2013-04-09 05:32:00,
2013-04-09 01:43:00,50.0,48.0,30.40,WNW,291,5.0,8.0,92,0.00,,,-99.99,,2013-04-09 05:43:00,
2013-04-09 01:52:00,50.0,48.0,30.40,WNW,291,5.0,8.0,92,0.00,,,-99.99,,2013-04-09 05:52:00,
2013-04-09 02:02:00,49.0,47.0,30.40,NNW,336,5.0,7.0,93,0.00,,,-99.99,,2013-04-09 06:02:00,
2013-04-09 02:12:00,49.0,47.0,30.40,NNW,336,5.0,7.0,93,0.00,,,-99.99,,2013-04-09 06:12:00,
2013-04-09 02:22:00,49.0,47.0,30.40,NNW,336,5.0,7.0,93,0.00,,,-99.99,,2013-04-09 06:22:00,
2013-04-09 02:32:00,50.0,47.0,30.40,NW,321,3.0,5.0,91,0.00,,,-99.99,,2013-04-09 06:32:00,
2013-04-09 02:42:00,50.0,47.0,30.40,NW,321,3.0,5.0,91,0.00,,,-99.99,,2013-04-09 06:42:00,
2013-04-09 02:50:00,50.0,47.0,30.40,NW,311,4.0,4.0,91,0.00,,,-99.99,,2013-04-09 06:50:00,
2013-04-09 02:52:00,50.0,47.0,30.40,NW,321,3.0,5.0,91,0.00,,,-99.99,,2013-04-09 06:52:00,
2013-04-09 03:02:00,50.0,47.0,30.40,NW,311,4.0,4.0,91,0.00,,,-99.99,,2013-04-09 07:02:00,
2013-04-09 03:13:00,50.0,47.0,30.40,NW,311,4.0,4.0,91,0.00,,,-99.99,,2013-04-09 07:13:00,
2013-04-09 03:22:00,50.0,47.0,30.40,NW,311,4.0,4.0,91,0.00,,,-99.99,,2013-04-09 07:22:00,
2013-04-09 03:32:00,50.0,47.0,30.40,NW,311,4.0,4.0,91,0.00,,,-99.99,,2013-04-09 07:32:00,
2013-04-09 03:42:00,50.0,47.0,30.40,NW,311,4.0,4.0,91,0.00,,,-99.99,,2013-04-09 07:42:00,
2013-04-09 04:03:00,48.0,46.0,30.40,WNW,302,3.0,4.0,94,0.00,,,-99.99,,2013-04-09 08:03:00,
2013-04-09 04:13:00,48.0,46.0,30.40,WNW,302,3.0,4.0,94,0.00,,,-99.99,,2013-04-09 08:13:00,
2013-04-09 04:22:00,48.0,46.0,30.40,NW,311,3.0,4.0,94,0.00,,,-99.99,,2013-04-09 08:22:00,
2013-04-09 04:32:00,48.0,47.0,30.40,NW,316,3.0,7.0,95,0.00,,,-99.99,,2013-04-09 08:32:00,
2013-04-09 04:42:00,48.0,47.0,30.40,NW,316,3.0,7.0,95,0.00,,,-99.99,,2013-04-09 08:42:00,
2013-04-09 04:52:00,48.0,47.0,30.40,NW,316,3.0,7.0,95,0.00,,,-99.99,,2013-04-09 08:52:00,
2013-04-09 05:02:00,48.0,47.0,30.40,NW,314,3.0,6.0,95,0.00,,,-99.99,,2013-04-09 09:02:00,
2013-04-09 05:12:00,48.0,47.0,30.40,NW,314,3.0,6.0,95,0.00,,,-99.99,,2013-04-09 09:12:00,
2013-04-09 05:22:00,48.0,47.0,30.40,NW,314,3.0,6.0,95,0.00,,,-99.99,,2013-04-09 09:22:00,
2013-04-09 05:33:00,48.0,47.0,30.41,NW,323,1.0,5.0,96,0.00,,,-99.99,,2013-04-09 09:33:00,
2013-04-09 05:43:00,48.0,47.0,30.41,NW,323,1.0,5.0,96,0.00,,,-99.99,,2013-04-09 09:43:00,
2013-04-09 05:53:00,48.0,47.0,30.41,NW,321,0.0,3.0,96,0.00,,,-99.99,,2013-04-09 09:53:00,
2013-04-09 06:04:00,48.0,47.0,30.42,NW,321,0.0,0.0,96,0.00,,,-99.99,,2013-04-09 10:04:00,
2013-04-09 06:13:00,48.0,47.0,30.42,NW,321,0.0,0.0,96,0.00,,,-99.99,,2013-04-09 10:13:00,
2013-04-09 06:23:00,48.0,47.0,30.42,NW,321,0.0,0.0,95,0.00,,,-99.99,,2013-04-09 10:23:00,
2013-04-09 06:33:00,48.0,47.0,30.42,NW,321,0.0,0.0,95,0.00,,,-99.99,,2013-04-09 10:33:00,
2013-04-09 06:43:00,48.0,47.0,30.42,NW,321,0.0,0.0,95,0.00,,,-99.99,,2013-04-09 10:43:00,
2013-04-09 06:52:00,48.0,47.0,30.43,NW,321,0.0,0.0,95,0.00,,,-99.99,,2013-04-09 10:52:00,
2013-04-09 07:02:00,48.0,47.0,30.43,NW,321,0.0,0.0,95,0.00,,,-99.99,,2013-04-09 11:02:00,
2013-04-09 07:12:00,49.0,47.0,30.44,West,277,0.0,0.0,94,0.00,,,-99.99,,2013-04-09 11:12:00,
2013-04-09 07:22:00,49.0,47.0,30.44,West,277,0.0,0.0,94,0.00,,,-99.99,,2013-04-09 11:22:00,
2013-04-09 07:32:00,49.0,47.0,30.45,West,277,0.0,0.0,94,0.00,,,-99.99,,2013-04-09 11:32:00,
2013-04-09 07:43:00,49.0,47.0,30.45,NW,311,0.0,1.0,94,0.00,,,-99.99,,2013-04-09 11:43:00,
2013-04-09 07:52:00,49.0,47.0,30.45,NW,311,0.0,1.0,94,0.00,,,-99.99,,2013-04-09 11:52:00,
2013-04-09 08:02:00,50.0,48.0,30.46,NW,311,0.0,0.0,92,0.00,,,-99.99,,2013-04-09 12:02:00,
2013-04-09 08:12:00,50.0,48.0,30.46,NW,311,0.0,0.0,92,0.00,,,-99.99,,2013-04-09 12:12:00,
2013-04-09 08:22:00,51.0,48.0,30.46,NW,311,0.0,0.0,91,0.00,,,-99.99,,2013-04-09 12:22:00,
2013-04-09 08:32:00,51.0,48.0,30.46,NW,311,0.0,0.0,91,0.00,,,-99.99,,2013-04-09 12:32:00,
2013-04-09 08:42:00,51.0,48.0,30.46,NW,311,0.0,0.0,91,0.00,,,-99.99,,2013-04-09 12:42:00,
2013-04-09 08:52:00,53.0,49.0,30.47,West,267,2.0,2.0,86,0.00,,,-99.99,,2013-04-09 12:52:00,
2013-04-09 09:02:00,54.0,50.0,30.48,West,273,3.0,4.0,85,0.00,,,-99.99,,2013-04-09 13:02:00,
2013-04-09 09:13:00,54.0,50.0,30.48,West,273,3.0,4.0,85,0.00,,,-99.99,,2013-04-09 13:13:00,
2013-04-09 09:23:00,55.0,51.0,30.48,West,263,2.0,4.0,85,0.00,,,-99.99,,2013-04-09 13:23:00,
2013-04-09 09:33:00,56.0,51.0,30.48,West,277,3.0,4.0,82,0.00,,,-99.99,,2013-04-09 13:33:00,
2013-04-09 09:43:00,56.0,51.0,30.48,West,277,3.0,4.0,82,0.00,,,-99.99,,2013-04-09 13:43:00,
2013-04-09 09:52:00,56.0,51.0,30.48,West,277,3.0,4.0,82,0.00,,,-99.99,,2013-04-09 13:52:00,
2013-04-09 10:03:00,60.0,52.0,30.48,NW,319,2.0,2.0,74,0.00,,,-99.99,,2013-04-09 14:03:00,
2013-04-09 10:12:00,60.0,52.0,30.48,NW,319,2.0,2.0,74,0.00,,,-99.99,,2013-04-09 14:12:00,
2013-04-09 10:22:00,61.0,52.0,30.49,WSW,255,3.0,4.0,73,0.00,,,-99.99,,2013-04-09 14:22:00,
2013-04-09 10:33:00,60.0,51.0,30.49,SW,233,5.0,5.0,72,0.00,,,-99.99,,2013-04-09 14:33:00,
2013-04-09 10:42:00,60.0,51.0,30.49,SW,233,5.0,5.0,72,0.00,,,-99.99,,2013-04-09 14:42:00,
2013-04-09 10:52:00,60.0,51.0,30.49,SW,233,5.0,5.0,72,0.00,,,-99.99,,2013-04-09 14:52:00,
2013-04-09 11:02:00,60.0,51.0,30.49,SW,233,5.0,5.0,72,0.00,,,-99.99,,2013-04-09 15:02:00,
2013-04-09 11:13:00,60.0,51.0,30.49,SW,233,5.0,5.0,72,0.00,,,-99.99,,2013-04-09 15:13:00,
2013-04-09 11:22:00,63.0,53.0,30.50,SE,142,7.0,9.0,69,0.00,,,-99.99,,2013-04-09 15:22:00,
2013-04-09 11:34:00,65.0,53.0,30.50,WNW,284,6.0,9.0,65,0.00,,,-99.99,,2013-04-09 15:34:00,
2013-04-09 11:44:00,65.0,53.0,30.50,WNW,284,6.0,9.0,65,0.00,,,-99.99,,2013-04-09 15:44:00,
2013-04-09 11:53:00,65.0,53.0,30.50,North,354,3.0,7.0,66,0.00,,,-99.99,,2013-04-09 15:53:00,
2013-04-09 12:03:00,66.0,53.0,30.50,WNW,293,0.0,7.0,64,0.00,,,-99.99,,2013-04-09 16:03:00,
2013-04-09 12:13:00,66.0,53.0,30.50,WNW,293,0.0,7.0,64,0.00,,,-99.99,,2013-04-09 16:13:00,
2013-04-09 12:23:00,67.0,53.0,30.50,SSW,212,5.0,8.0,61,0.00,,,-99.99,,2013-04-09 16:23:00,
2013-04-09 12:33:00,66.0,52.0,30.50,NNW,343,1.0,6.0,61,0.00,,,-99.99,,2013-04-09 16:33:00,
2013-04-09 12:42:00,66.0,52.0,30.50,NNW,343,1.0,6.0,61,0.00,,,-99.99,,2013-04-09 16:42:00,
2013-04-09 12:53:00,66.0,52.0,30.50,NNW,343,1.0,6.0,61,0.00,,,-99.99,,2013-04-09 16:53:00,
2013-04-09 13:02:00,67.0,54.0,30.50,SSE,159,2.0,8.0,64,0.00,,,-99.99,,2013-04-09 17:02:00,
2013-04-09 13:13:00,68.0,54.0,30.49,SE,145,5.0,12.0,60,0.00,,,-99.99,,2013-04-09 17:13:00,
2013-04-09 13:23:00,68.0,54.0,30.49,SE,145,5.0,12.0,60,0.00,,,-99.99,,2013-04-09 17:23:00,
2013-04-09 13:32:00,68.0,54.0,30.49,SE,145,5.0,12.0,60,0.00,,,-99.99,,2013-04-09 17:32:00,
2013-04-09 13:42:00,68.0,54.0,30.49,SE,145,5.0,12.0,60,0.00,,,-99.99,,2013-04-09 17:42:00,
2013-04-09 13:54:00,68.0,54.0,30.48,WNW,290,0.0,12.0,61,0.00,,,-99.99,,2013-04-09 17:54:00,
2013-04-09 14:02:00,67.0,54.0,30.48,SSW,197,9.0,14.0,62,0.00,,,-99.99,,2013-04-09 18:02:00,
2013-04-09 14:13:00,67.0,54.0,30.48,SSW,197,9.0,14.0,62,0.00,,,-99.99,,2013-04-09 18:13:00,
2013-04-09 14:20:00,68.0,53.0,30.47,SSW,207,4.0,11.0,59,0.00,,,-99.99,,2013-04-09 18:20:00,
2013-04-09 14:23:00,67.0,54.0,30.48,South,190,7.0,12.0,62,0.00,,,-99.99,,2013-04-09 18:23:00,
2013-04-09 14:33:00,68.0,53.0,30.47,SSW,207,4.0,11.0,59,0.00,,,-99.99,,2013-04-09 18:33:00,
2013-04-09 14:43:00,68.0,53.0,30.47,SSW,207,4.0,11.0,59,0.00,,,-99.99,,2013-04-09 18:43:00,
2013-04-09 14:53:00,68.0,53.0,30.47,SSW,207,4.0,11.0,59,0.00,,,-99.99,,2013-04-09 18:53:00,
2013-04-09 15:03:00,68.0,53.0,30.47,SSW,207,4.0,11.0,59,0.00,,,-99.99,,2013-04-09 19:03:00,
2013-04-09 15:12:00,68.0,53.0,30.47,SSW,207,4.0,11.0,59,0.00,,,-99.99,,2013-04-09 19:12:00,
2013-04-09 15:33:00,69.0,53.0,30.47,WSW,252,7.0,14.0,56,0.00,,,-99.99,,2013-04-09 19:33:00,
2013-04-09 15:42:00,69.0,53.0,30.47,WSW,252,7.0,14.0,56,0.00,,,-99.99,,2013-04-09 19:42:00,
2013-04-09 15:53:00,69.0,52.0,30.47,West,274,5.0,9.0,54,0.00,,,-99.99,,2013-04-09 19:53:00,
2013-04-09 16:02:00,71.0,52.0,30.46,South,191,3.0,11.0,51,0.00,,,-99.99,,2013-04-09 20:02:00,
2013-04-09 16:12:00,71.0,53.0,30.46,West,266,7.0,10.0,53,0.00,,,-99.99,,2013-04-09 20:12:00,
2013-04-09 16:23:00,71.0,53.0,30.46,West,266,7.0,10.0,53,0.00,,,-99.99,,2013-04-09 20:23:00,
2013-04-09 16:34:00,71.0,54.0,30.45,NW,308,7.0,10.0,54,0.00,,,-99.99,,2013-04-09 20:34:00,
2013-04-09 16:43:00,71.0,54.0,30.45,NW,308,7.0,10.0,54,0.00,,,-99.99,,2013-04-09 20:43:00,
2013-04-09 16:53:00,71.0,54.0,30.45,NW,308,7.0,10.0,54,0.00,,,-99.99,,2013-04-09 20:53:00,
2013-04-09 17:02:00,71.0,54.0,30.44,WSW,240,7.0,10.0,55,0.00,,,-99.99,,2013-04-09 21:02:00,
2013-04-09 17:13:00,71.0,54.0,30.44,WSW,240,7.0,10.0,55,0.00,,,-99.99,,2013-04-09 21:13:00,
2013-04-09 17:22:00,71.0,54.0,30.44,WSW,240,7.0,10.0,55,0.00,,,-99.99,,2013-04-09 21:22:00,
2013-04-09 17:33:00,69.0,54.0,30.44,WSW,255,5.0,13.0,58,0.00,,,-99.99,,2013-04-09 21:33:00,
2013-04-09 17:42:00,69.0,54.0,30.44,WSW,255,5.0,13.0,58,0.00,,,-99.99,,2013-04-09 21:42:00,
2013-04-09 17:52:00,69.0,54.0,30.44,WSW,255,5.0,13.0,58,0.00,,,-99.99,,2013-04-09 21:52:00,
2013-04-09 18:03:00,68.0,53.0,30.44,South,188,6.0,12.0,59,0.00,,,-99.99,,2013-04-09 22:03:00,
2013-04-09 18:13:00,68.0,54.0,30.45,South,180,4.0,13.0,60,0.00,,,-99.99,,2013-04-09 22:13:00,
2013-04-09 18:23:00,68.0,54.0,30.45,South,180,4.0,13.0,60,0.00,,,-99.99,,2013-04-09 22:23:00,
2013-04-09 18:33:00,67.0,54.0,30.45,SSW,204,5.0,9.0,62,0.00,,,-99.99,,2013-04-09 22:33:00,
2013-04-09 18:42:00,67.0,54.0,30.45,SSW,204,5.0,9.0,62,0.00,,,-99.99,,2013-04-09 22:42:00,
2013-04-09 18:54:00,67.0,55.0,30.45,South,172,2.0,10.0,65,0.00,,,-99.99,,2013-04-09 22:54:00,
2013-04-09 19:00:00,65.0,55.0,30.45,WSW,252,3.0,8.0,69,0.00,,,-99.99,,2013-04-09 23:00:00,
2013-04-09 19:03:00,67.0,55.0,30.45,South,172,2.0,10.0,65,0.00,,,-99.99,,2013-04-09 23:03:00,
2013-04-09 19:12:00,65.0,55.0,30.45,WSW,252,3.0,8.0,69,0.00,,,-99.99,,2013-04-09 23:12:00,
2013-04-09 19:23:00,65.0,55.0,30.45,WSW,252,3.0,8.0,69,0.00,,,-99.99,,2013-04-09 23:23:00,
2013-04-09 19:32:00,65.0,55.0,30.45,WSW,252,3.0,8.0,69,0.00,,,-99.99,,2013-04-09 23:32:00,
2013-04-09 19:43:00,65.0,55.0,30.45,WSW,252,3.0,8.0,69,0.00,,,-99.99,,2013-04-09 23:43:00,
2013-04-09 19:53:00,65.0,55.0,30.45,WSW,252,3.0,8.0,69,0.00,,,-99.99,,2013-04-09 23:53:00,
2013-04-09 20:23:00,62.0,54.0,30.45,WSW,243,3.0,8.0,74,0.00,,,-99.99,,2013-04-10 00:23:00,
2013-04-09 20:33:00,62.0,54.0,30.45,WSW,243,3.0,8.0,74,0.00,,,-99.99,,2013-04-10 00:33:00,
2013-04-09 20:42:00,62.0,54.0,30.45,WSW,243,3.0,8.0,74,0.00,,,-99.99,,2013-04-10 00:42:00,
2013-04-09 20:52:00,60.0,53.0,30.45,SW,222,1.0,6.0,78,0.00,,,-99.99,,2013-04-10 00:52:00,
2013-04-09 21:02:00,60.0,53.0,30.45,SW,222,1.0,6.0,78,0.00,,,-99.99,,2013-04-10 01:02:00,
2013-04-09 21:12:00,59.0,53.0,30.46,South,190,2.0,5.0,81,0.00,,,-99.99,,2013-04-10 01:12:00,
2013-04-09 21:23:00,59.0,53.0,30.46,South,190,2.0,5.0,81,0.00,,,-99.99,,2013-04-10 01:23:00,
2013-04-09 21:32:00,59.0,53.0,30.46,South,188,2.0,4.0,81,0.00,,,-99.99,,2013-04-10 01:32:00,
2013-04-09 21:43:00,59.0,53.0,30.46,South,188,2.0,4.0,81,0.00,,,-99.99,,2013-04-10 01:43:00,
2013-04-09 21:53:00,59.0,54.0,30.46,South,190,4.0,4.0,82,0.00,,,-99.99,,2013-04-10 01:53:00,
2013-04-09 22:02:00,59.0,54.0,30.46,South,183,1.0,7.0,82,0.00,,,-99.99,,2013-04-10 02:02:00,
2013-04-09 22:13:00,59.0,54.0,30.46,South,183,1.0,7.0,82,0.00,,,-99.99,,2013-04-10 02:13:00,
2013-04-09 22:22:00,59.0,54.0,30.46,South,183,1.0,7.0,82,0.00,,,-99.99,,2013-04-10 02:22:00,
2013-04-09 22:33:00,58.0,53.0,30.45,SE,143,2.0,7.0,83,0.00,,,-99.99,,2013-04-10 02:33:00,
2013-04-09 22:43:00,58.0,53.0,30.45,SE,143,2.0,7.0,83,0.00,,,-99.99,,2013-04-10 02:43:00,
2013-04-09 22:53:00,57.0,53.0,30.45,SSW,207,3.0,7.0,85,0.00,,,-99.99,,2013-04-10 02:53:00,
2013-04-09 23:03:00,57.0,53.0,30.44,SSE,159,2.0,5.0,85,0.00,,,-99.99,,2013-04-10 03:03:00,
2013-04-09 23:10:00,57.0,53.0,30.44,South,176,2.0,6.0,86,0.00,,,-99.99,,2013-04-10 03:10:00,
2013-04-09 23:12:00,57.0,53.0,30.44,SSE,159,2.0,5.0,85,0.00,,,-99.99,,2013-04-10 03:12:00,
2013-04-09 23:22:00,57.0,53.0,30.44,SW,215,2.0,10.0,85,0.00,,,-99.99,,2013-04-10 03:22:00,
2013-04-09 23:33:00,57.0,53.0,30.44,South,176,2.0,6.0,86,0.00,,,-99.99,,2013-04-10 03:33:00,
2013-04-09 23:43:00,57.0,53.0,30.44,South,176,2.0,6.0,86,0.00,,,-99.99,,2013-04-10 03:43:00,
2013-04-09 23:52:00,57.0,53.0,30.44,South,176,2.0,6.0,86,0.00,,,-99.99,,2013-04-10 03:52:00,